MRIT2: Lake Meredith

                                SHEF ID:       MRIT2     Lake Meredith
STATION TYPE: RESERVOIR
Flood Pool: Bottom = 2941.30, Top = 2965.00

PRECIP ELEVATION STORAGE INFLOW RELEASE WIND-DIRWIND-SPEED
in ft ac-ft cfs cfs deg mph
Ccp-Rev Ccp-Rev Ccp-Rev Rev-Regi Rev-Regi Ccp-Rev Ccp-Rev
(America/Chicago)
05/15 00:00 ---- 2890.32 252122 0 0 264.00 8.00
05/15 01:00 ---- 2890.29 251895 0 0 11.00 4.00
05/15 02:00 ---- 2890.30 251971 0 0 336.00 5.00
05/15 03:00 ---- 2890.24 251517 0 0 346.00 5.00
05/15 04:00 ---- 2890.27 251744 0 0 321.00 4.00
05/15 05:00 ---- 2890.25 251592 0 0 285.00 5.00
05/15 06:00 ---- 2890.25 251592 0 0 247.00 5.00
05/15 07:00 ---- 2890.27 251744 0 0 248.00 6.00
05/15 08:00 ---- 2890.25 251592 0 0 201.00 4.00
05/15 09:00 ---- 2890.29 251895 0 0 ---- ----
05/15 10:00 ---- 2890.29 251895 0 0 ---- ----
05/15 11:00 ---- 2890.32 252122 196 0 ---- ----
05/15 12:00 ---- 2890.29 251895 342 0 ---- ----
05/15 13:00 ---- 2890.25 251592 391 0 ---- ----
05/15 14:00 ---- 2890.32 252122 440 0 ---- ----
05/15 15:00 ---- 2890.34 252273 440 0 ---- ----
05/15 16:00 ---- 2890.33 252198 536 0 ---- ----
05/15 17:00 ---- 2890.32 252122 390 0 ---- ----
05/15 18:00 ---- 2890.35 252349 341 0 ---- ----
05/15 19:00 ---- 2890.34 252273 292 0 ---- ----
05/15 20:00 ---- 2890.34 252273 292 0 ---- ----
05/15 21:00 ---- 2890.34 252273 0 0 ---- ----
05/15 22:00 ---- 2890.33 252198 0 0 ---- ----
05/15 23:00 ---- ---- ---- ---- ---- ---- ----
Data processed at Fri 16May2025 04:43 GMT

Parsing this webpage?

Checkout our new Data API! CWMSDataAPI (CDA)

Timeseries IDs (TSIDs)

TSIDs used from left to right in the data table
MERE.Precip-Inc.Total.1Hour.1Hour.Ccp-Rev
MERE.Elev.Inst.1Hour.0.Ccp-Rev
MERE.Stor.Inst.1Hour.0.Ccp-Rev
MERE.Flow-Res In.Ave.1Hour.1Hour.Rev-Regi-Computed
MERE.Flow-Res Out.Ave.1Hour.1Hour.Rev-Regi-Flowgroup
MERE.Dir-Wind.Inst.1Hour.0.Ccp-Rev
MERE.Speed-Wind.Inst.1Hour.0.Ccp-Rev

                            

All information presented herein is the property of the government of the United States of America and may be revised or deleted at any time without prior notice. Dissemination of this information without the expressed written consent of the Public Affairs Office, Tulsa District U.S. Army Corps of Engineers is strictly prohibited. These data are gathered electronically and, as presented, have NOT undergone any form of quality control. These data are NOT guaranteed to be valid or correct.